Time;durP1;ratioP1;P1;durP2;ratioP2;P2;SDS_P1;SDS_P2;PMS_P1;PMS_P2;Temp;Humidity;BMP_temperature;BMP_pressure;BME280_temperature;BME280_humidity;BME280_pressure;Samples;Min_cycle;Max_cycle;Signal;HPM_P1;HPM_P2
2023/10/03 00:00:58;;;;;;;1.50;0.80;;;;;;;;;;4972456;28;20179;-74
2023/10/03 00:03:25;;;;;;;3.95;0.98;;;13.30;99.90;;;;;;4972790;28;20215;-75
2023/10/03 00:05:51;;;;;;;1.73;1.00;;;13.30;99.90;;;;;;4972311;28;20175;-75
2023/10/03 00:08:18;;;;;;;1.47;0.87;;;13.30;99.90;;;;;;4972255;28;20317;-74
2023/10/03 00:10:45;;;;;;;1.30;0.60;;;;;;;;;;4981188;28;20186;-75
2023/10/03 00:13:12;;;;;;;2.00;0.90;;;13.20;99.90;;;;;;4991721;28;20532;-75
2023/10/03 00:15:48;;;;;;;4.13;0.93;;;13.10;99.90;;;;;;4991751;28;20171;-75
2023/10/03 00:18:14;;;;;;;1.17;0.77;;;13.20;99.90;;;;;;4991612;28;20170;-75
2023/10/03 00:20:41;;;;;;;1.73;0.90;;;13.20;99.90;;;;;;4991712;28;20646;-74
2023/10/03 00:23:07;;;;;;;3.88;0.80;;;13.30;99.90;;;;;;4991673;28;20254;-75
2023/10/03 00:25:34;;;;;;;2.00;0.73;;;13.10;99.90;;;;;;4991642;28;20197;-75
2023/10/03 00:28:00;;;;;;;1.30;0.80;;;13.20;99.90;;;;;;4991378;28;20696;-75
2023/10/03 00:30:30;;;;;;;0.98;0.52;;;13.30;99.90;;;;;;4991747;28;20286;-74
2023/10/03 00:32:57;;;;;;;2.57;0.80;;;13.20;99.90;;;;;;4991376;28;20183;-75
2023/10/03 00:35:26;;;;;;;1.73;0.70;;;13.30;99.90;;;;;;4991140;28;20174;-75
2023/10/03 00:37:53;;;;;;;2.10;0.70;;;13.40;99.90;;;;;;4991516;28;20167;-75
2023/10/03 00:42:50;;;;;;;1.35;0.70;;;13.30;99.90;;;;;;4991412;28;20301;-74
2023/10/03 00:45:21;;;;;;;4.00;0.82;;;13.30;99.90;;;;;;4990211;28;20171;-75
2023/10/03 00:47:51;;;;;;;3.92;1.00;;;13.30;99.90;;;;;;4991316;28;20187;-75
2023/10/03 00:50:20;;;;;;;1.20;0.68;;;13.50;99.90;;;;;;4991371;28;20234;-75
2023/10/03 00:52:56;;;;;;;3.60;0.77;;;13.50;99.90;;;;;;4991375;28;20250;-74
2023/10/03 00:55:26;;;;;;;1.00;0.70;;;13.40;99.90;;;;;;4990313;28;20166;-75
2023/10/03 00:58:17;;;;;;;1.60;0.70;;;13.50;99.90;;;;;;4989661;28;20245;-74
2023/10/03 01:00:49;;;;;;;1.73;0.90;;;13.20;99.90;;;;;;4978594;28;20184;-74
2023/10/03 01:03:36;;;;;;;4.82;1.30;;;13.30;99.90;;;;;;4991359;28;20706;-74
2023/10/03 01:06:08;;;;;;;2.65;0.98;;;13.10;99.90;;;;;;4978463;28;20678;-74
2023/10/03 01:08:38;;;;;;;2.42;0.80;;;13.30;99.90;;;;;;4971688;28;20203;-74
2023/10/03 01:11:08;;;;;;;2.60;1.00;;;13.40;99.90;;;;;;4974474;28;20187;-74
2023/10/03 01:13:34;;;;;;;3.53;1.00;;;13.20;99.90;;;;;;4975840;28;20329;-74
2023/10/03 01:16:03;;;;;;;3.92;0.70;;;13.20;99.90;;;;;;4975580;28;20180;-74
2023/10/03 01:18:31;;;;;;;2.08;0.82;;;13.40;99.90;;;;;;4990315;28;20186;-73
2023/10/03 01:21:00;;;;;;;4.15;1.08;;;13.20;99.90;;;;;;4994613;28;20190;-74
2023/10/03 01:23:30;;;;;;;1.67;0.80;;;13.20;99.90;;;;;;4994740;28;20180;-74
2023/10/03 01:25:55;;;;;;;2.17;1.00;;;13.10;99.90;;;;;;4993355;28;20171;-74
2023/10/03 01:28:21;;;;;;;1.38;0.85;;;13.10;99.90;;;;;;4993155;28;20226;-74
2023/10/03 01:30:46;;;;;;;2.53;1.20;;;13.00;99.90;;;;;;4994736;28;20167;-74
2023/10/03 01:33:12;;;;;;;5.28;0.82;;;13.00;99.90;;;;;;4994570;28;20179;-74
2023/10/03 01:35:38;;;;;;;1.37;0.87;;;13.00;99.90;;;;;;4994484;28;20254;-74
2023/10/03 01:38:05;;;;;;;3.80;1.40;;;12.70;99.90;;;;;;4994478;28;20189;-74
2023/10/03 01:40:31;;;;;;;1.88;1.08;;;13.00;99.90;;;;;;4993107;28;20179;-74
2023/10/03 01:42:57;;;;;;;1.20;0.73;;;12.80;99.90;;;;;;4991749;28;20229;-74
2023/10/03 01:45:24;;;;;;;2.47;1.03;;;12.90;99.90;;;;;;4994275;28;20175;-74
2023/10/03 01:47:51;;;;;;;5.13;1.30;;;12.80;99.90;;;;;;4992899;28;20274;-74
2023/10/03 01:50:19;;;;;;;1.48;1.00;;;12.70;99.90;;;;;;4994181;28;20685;-74
2023/10/03 01:52:46;;;;;;;7.87;1.10;;;12.80;99.90;;;;;;4994291;28;20179;-74
2023/10/03 01:55:17;;;;;;;1.70;1.10;;;12.70;99.90;;;;;;4993986;28;20310;-74
2023/10/03 01:57:44;;;;;;;4.63;0.90;;;13.00;99.90;;;;;;4994110;28;20650;-74
2023/10/03 02:00:24;;;;;;;3.30;0.95;;;12.80;99.90;;;;;;4992804;28;20291;-74
2023/10/03 02:03:03;;;;;;;2.90;1.17;;;12.80;99.90;;;;;;4994207;28;20178;-74
2023/10/03 02:05:30;;;;;;;4.27;1.10;;;12.80;99.90;;;;;;4993854;28;20186;-74
2023/10/03 02:07:55;;;;;;;2.53;1.08;;;12.90;99.90;;;;;;4994063;28;20171;-74
2023/10/03 02:10:22;;;;;;;4.73;1.17;;;12.90;99.90;;;;;;4994030;28;20183;-74
2023/10/03 02:12:51;;;;;;;3.97;1.20;;;13.00;99.90;;;;;;4993771;28;20174;-74
2023/10/03 02:15:21;;;;;;;2.03;1.00;;;12.90;99.90;;;;;;4994063;28;20254;-74
2023/10/03 02:17:49;;;;;;;2.03;1.00;;;12.90;99.90;;;;;;4993857;28;20176;-74
2023/10/03 02:20:20;;;;;;;2.70;0.87;;;12.90;99.90;;;;;;4993870;28;20175;-74
2023/10/03 02:22:53;;;;;;;3.37;1.20;;;12.90;99.90;;;;;;4992207;28;20171;-74
2023/10/03 02:25:20;;;;;;;2.67;1.07;;;12.90;99.90;;;;;;4993811;28;20186;-74
2023/10/03 02:27:46;;;;;;;4.13;1.10;;;12.80;99.90;;;;;;4992380;28;20576;-74
2023/10/03 02:30:12;;;;;;;3.83;1.30;;;13.00;99.90;;;;;;4993440;28;20219;-74
2023/10/03 02:32:41;;;;;;;4.07;1.30;;;12.60;99.90;;;;;;4992266;28;20182;-74
2023/10/03 02:35:08;;;;;;;3.57;1.23;;;12.70;99.90;;;;;;4993438;28;20649;-74
2023/10/03 02:37:34;;;;;;;2.85;1.25;;;12.80;99.90;;;;;;4982762;28;20179;-74
2023/10/03 02:40:00;;;;;;;2.87;1.30;;;12.80;99.90;;;;;;4972538;28;20184;-74
2023/10/03 02:42:26;;;;;;;2.58;1.35;;;12.70;99.90;;;;;;4972471;28;20222;-74
2023/10/03 02:44:51;;;;;;;3.50;1.50;;;12.80;99.90;;;;;;4973896;28;20247;-74
2023/10/03 02:47:17;;;;;;;2.97;1.20;;;12.70;99.90;;;;;;4982156;28;20179;-74
2023/10/03 02:49:43;;;;;;;2.40;1.37;;;12.60;99.90;;;;;;4992750;28;20222;-74
2023/10/03 02:52:10;;;;;;;2.07;1.20;;;12.70;99.90;;;;;;4973577;28;20180;-74
2023/10/03 02:54:35;;;;;;;3.13;1.30;;;12.60;99.90;;;;;;4972437;28;20185;-74
2023/10/03 02:57:01;;;;;;;4.43;1.30;;;12.60;99.90;;;;;;4972214;28;20266;-74
2023/10/03 02:59:27;;;;;;;11.30;1.43;;;12.50;99.90;;;;;;4973529;28;20719;-74
2023/10/03 03:01:56;;;;;;;2.80;1.40;;;12.80;99.90;;;;;;4973439;28;20183;-74
2023/10/03 03:04:23;;;;;;;2.43;1.10;;;12.10;99.90;;;;;;4972235;28;20710;-74
2023/10/03 03:06:51;;;;;;;3.63;1.30;;;12.70;99.90;;;;;;4975448;28;20175;-74
2023/10/03 03:09:23;;;;;;;4.17;1.63;;;12.60;99.90;;;;;;4979669;28;20303;-74
2023/10/03 03:11:49;;;;;;;4.63;1.53;;;12.60;99.90;;;;;;4973478;28;20198;-75
2023/10/03 03:14:15;;;;;;;5.03;1.57;;;;;;;;;;4976576;28;20175;-74
2023/10/03 03:16:41;;;;;;;2.47;1.37;;;16.20;99.90;;;;;;4982650;28;20265;-74
2023/10/03 03:19:07;;;;;;;4.33;1.50;;;12.50;99.90;;;;;;4992661;28;20250;-74
2023/10/03 03:21:33;;;;;;;4.87;1.40;;;12.10;99.90;;;;;;4992227;28;20261;-74
2023/10/03 03:24:08;;;;;;;3.70;1.40;;;12.50;99.90;;;;;;4978119;28;20182;-74
2023/10/03 03:26:39;;;;;;;2.77;1.33;;;12.30;99.90;;;;;;4976540;28;20634;-74
2023/10/03 03:29:22;;;;;;;3.37;1.33;;;12.40;99.90;;;;;;4972870;28;20219;-74
2023/10/03 03:31:51;;;;;;;2.43;1.47;;;12.30;99.90;;;;;;4972311;28;20314;-73
2023/10/03 03:34:16;;;;;;;3.50;1.47;;;12.30;99.90;;;;;;4972357;28;20188;-73
2023/10/03 03:36:46;;;;;;;1.60;1.07;;;12.30;99.90;;;;;;4975347;28;20194;-73
2023/10/03 03:39:16;;;;;;;2.30;1.20;;;12.30;99.90;;;;;;4971532;28;20175;-73
2023/10/03 03:41:42;;;;;;;5.47;1.50;;;12.10;99.90;;;;;;4972687;28;20171;-73
2023/10/03 03:44:12;;;;;;;2.37;1.03;;;12.10;99.90;;;;;;4972741;28;20180;-73
2023/10/03 03:46:41;;;;;;;3.30;1.37;;;12.30;99.90;;;;;;4989818;28;20176;-73
2023/10/03 03:49:08;;;;;;;2.23;1.30;;;11.90;99.90;;;;;;4992034;28;20685;-73
2023/10/03 03:51:34;;;;;;;4.00;1.40;;;12.00;99.90;;;;;;4980624;28;20228;-73
2023/10/03 03:54:00;;;;;;;4.07;1.60;;;;;;;;;;4984845;28;20175;-74
2023/10/03 03:56:26;;;;;;;4.13;1.33;;;12.20;99.90;;;;;;4990363;28;20273;-73
2023/10/03 03:58:52;;;;;;;2.83;1.43;;;12.10;99.90;;;;;;4991659;28;20262;-74
2023/10/03 04:01:19;;;;;;;3.00;1.47;;;12.00;99.90;;;;;;4991721;28;20634;-73
2023/10/03 04:03:50;;;;;;;4.17;1.50;;;12.00;99.90;;;;;;4991792;28;20689;-73
2023/10/03 04:06:18;;;;;;;2.77;1.43;;;11.90;99.90;;;;;;4991910;28;20171;-74
2023/10/03 04:08:45;;;;;;;2.83;1.40;;;11.90;99.90;;;;;;4991630;28;20241;-74
2023/10/03 04:11:13;;;;;;;3.87;1.50;;;11.90;99.90;;;;;;4985344;28;20175;-74
2023/10/03 04:13:49;;;;;;;3.90;1.43;;;11.80;99.90;;;;;;4970893;28;20176;-74
2023/10/03 04:16:15;;;;;;;5.93;1.60;;;;;;;;;;4972241;28;20176;-74
2023/10/03 04:18:44;;;;;;;4.17;1.40;;;;;;;;;;4972096;28;20255;-74
2023/10/03 04:21:10;;;;;;;2.90;1.50;;;11.90;99.90;;;;;;4972141;28;20172;-73
2023/10/03 04:23:38;;;;;;;3.83;1.60;;;11.80;99.90;;;;;;4972239;28;20688;-73
2023/10/03 04:26:06;;;;;;;3.33;1.47;;;11.80;99.90;;;;;;4972202;28;20180;-73
2023/10/03 04:28:32;;;;;;;4.17;1.60;;;;;;;;;;4971803;28;20200;-74
2023/10/03 04:30:58;;;;;;;4.87;1.53;;;;;;;;;;4972014;28;20701;-74
2023/10/03 04:33:24;;;;;;;3.97;1.30;;;12.10;99.90;;;;;;4972075;28;20183;-74
2023/10/03 04:35:51;;;;;;;3.90;1.57;;;11.80;99.90;;;;;;4972057;28;20216;-74
2023/10/03 04:38:17;;;;;;;3.13;1.53;;;;;;;;;;4970683;28;20238;-75
2023/10/03 04:40:45;;;;;;;3.87;1.50;;;12.10;99.90;;;;;;4986573;28;20621;-74
2023/10/03 04:43:14;;;;;;;10.00;1.77;;;11.70;99.90;;;;;;4989936;28;20273;-74
2023/10/03 04:45:44;;;;;;;3.27;1.30;;;11.60;99.90;;;;;;4993516;28;20183;-74
2023/10/03 04:48:10;;;;;;;5.27;1.87;;;;;;;;;;4989023;28;20650;-74
2023/10/03 04:50:39;;;;;;;5.30;1.60;;;11.80;99.90;;;;;;4994750;28;20175;-74
2023/10/03 04:53:07;;;;;;;3.10;1.53;;;;;;;;;;4995369;28;20174;-74
2023/10/03 04:55:33;;;;;;;4.00;1.40;;;11.70;99.90;;;;;;4994501;28;20622;-73
2023/10/03 04:57:59;;;;;;;5.03;1.43;;;11.80;99.90;;;;;;4981151;28;20175;-74
2023/10/03 05:00:26;;;;;;;2.23;1.27;;;11.90;99.90;;;;;;4994343;28;20250;-72
2023/10/03 05:02:53;;;;;;;4.17;1.20;;;11.80;99.90;;;;;;4994444;28;20211;-73
2023/10/03 05:05:21;;;;;;;3.00;1.30;;;11.50;99.90;;;;;;4984055;28;20184;-72
2023/10/03 05:07:53;;;;;;;3.60;1.67;;;11.60;99.90;;;;;;4994430;28;20172;-73
2023/10/03 05:10:30;;;;;;;4.33;1.27;;;11.60;99.90;;;;;;4987891;28;20235;-73
2023/10/03 05:12:57;;;;;;;3.90;1.63;;;11.70;99.90;;;;;;4975595;28;20208;-73
2023/10/03 05:15:26;;;;;;;4.87;1.30;;;11.50;99.90;;;;;;4975636;28;20203;-74
2023/10/03 05:17:52;;;;;;;4.13;1.50;;;11.50;99.90;;;;;;4975475;28;20180;-74
2023/10/03 05:20:18;;;;;;;4.27;1.67;;;11.60;99.90;;;;;;4974198;28;20183;-74
2023/10/03 05:22:47;;;;;;;2.60;1.47;;;11.60;99.90;;;;;;4982672;28;20172;-74
2023/10/03 05:25:17;;;;;;;8.50;1.70;;;11.20;99.90;;;;;;4994724;28;20178;-74
2023/10/03 05:27:43;;;;;;;6.23;1.67;;;11.20;99.90;;;;;;4994646;28;20171;-74
2023/10/03 05:30:11;;;;;;;5.00;1.60;;;11.30;99.90;;;;;;4994468;28;20214;-74
2023/10/03 05:32:37;;;;;;;2.53;1.37;;;11.30;99.90;;;;;;4994682;28;20175;-74
2023/10/03 05:35:08;;;;;;;4.43;1.47;;;;;;;;;;4994567;28;20238;-74
2023/10/03 05:37:34;;;;;;;5.53;2.03;;;11.00;99.90;;;;;;4993140;28;20179;-75
2023/10/03 05:40:19;;;;;;;4.00;1.60;;;11.30;99.90;;;;;;4994466;28;20187;-74
2023/10/03 05:42:45;;;;;;;3.37;1.47;;;11.20;99.90;;;;;;4992741;28;20276;-74
2023/10/03 05:45:12;;;;;;;5.80;1.53;;;11.10;99.90;;;;;;4994293;28;20182;-74
2023/10/03 05:47:46;;;;;;;4.80;1.60;;;11.20;99.90;;;;;;4988572;28;20221;-74
2023/10/03 05:50:14;;;;;;;4.97;1.70;;;11.10;99.90;;;;;;4974752;28;20219;-74
2023/10/03 05:52:40;;;;;;;5.70;1.50;;;11.10;99.90;;;;;;4974729;28;20191;-75
2023/10/03 05:55:07;;;;;;;4.30;1.77;;;11.40;99.90;;;;;;4974827;28;20176;-74
2023/10/03 05:57:33;;;;;;;4.60;1.70;;;11.30;99.90;;;;;;4974189;28;20258;-74
2023/10/03 06:00:00;;;;;;;4.87;1.43;;;;;;;;;;4988771;28;20191;-74
2023/10/03 06:02:25;;;;;;;4.40;1.30;;;11.30;99.90;;;;;;4993580;28;20246;-74
2023/10/03 06:04:52;;;;;;;2.70;1.50;;;11.50;99.90;;;;;;4993937;28;20203;-74
2023/10/03 06:07:18;;;;;;;7.07;1.73;;;11.30;99.90;;;;;;4993900;28;20249;-75
2023/10/03 06:09:44;;;;;;;5.97;1.87;;;;;;;;;;4993816;28;20627;-74
2023/10/03 06:12:09;;;;;;;4.80;1.50;;;11.30;99.90;;;;;;4993711;28;20172;-75
2023/10/03 06:14:36;;;;;;;4.43;1.40;;;11.30;99.90;;;;;;4993591;28;20177;-74
2023/10/03 06:17:02;;;;;;;4.53;1.90;;;;;;;;;;4994016;28;20203;-73
2023/10/03 06:19:30;;;;;;;10.20;1.70;;;11.10;99.90;;;;;;4993590;28;20215;-74
2023/10/03 06:21:56;;;;;;;8.57;1.73;;;11.40;99.90;;;;;;4993685;28;20202;-75
2023/10/03 06:24:25;;;;;;;1.97;1.27;;;11.20;99.90;;;;;;5001604;28;20627;-75
2023/10/03 06:26:50;;;;;;;4.60;1.50;;;11.20;99.90;;;;;;4989721;28;20183;-74
2023/10/03 06:29:17;;;;;;;4.73;1.70;;;;;;;;;;4978885;28;20254;-72
2023/10/03 06:31:44;;;;;;;4.13;1.57;;;11.10;99.90;;;;;;4988442;28;20177;-73
2023/10/03 06:34:10;;;;;;;4.30;1.77;;;11.60;99.90;;;;;;4981102;28;20693;-73
2023/10/03 06:36:36;;;;;;;3.67;1.77;;;11.20;99.90;;;;;;4993179;28;20263;-73
2023/10/03 06:39:04;;;;;;;7.90;1.97;;;11.40;99.90;;;;;;4980038;28;20263;-73
2023/10/03 06:41:30;;;;;;;4.30;2.03;;;11.10;99.90;;;;;;4972521;28;20262;-73
2023/10/03 06:43:55;;;;;;;5.10;1.97;;;11.20;99.90;;;;;;4973420;28;20302;-73
2023/10/03 06:46:21;;;;;;;6.70;1.90;;;11.40;99.90;;;;;;4975620;28;20643;-73
2023/10/03 06:48:47;;;;;;;5.77;1.93;;;11.10;99.90;;;;;;4973743;28;20230;-73
2023/10/03 06:51:13;;;;;;;4.77;1.87;;;11.40;99.90;;;;;;4972552;28;20183;-74
2023/10/03 06:53:41;;;;;;;7.93;1.80;;;11.40;99.90;;;;;;4973822;28;20187;-73
2023/10/03 06:56:07;;;;;;;8.20;1.73;;;11.30;99.90;;;;;;4973411;28;20203;-75
2023/10/03 06:58:33;;;;;;;3.83;1.60;;;11.50;99.90;;;;;;4972184;28;20647;-73
2023/10/03 07:00:59;;;;;;;5.03;1.90;;;11.70;99.90;;;;;;4973570;28;20172;-73
2023/10/03 07:03:24;;;;;;;5.77;2.20;;;11.60;99.90;;;;;;4973424;28;20183;-73
2023/10/03 07:05:50;;;;;;;4.80;2.10;;;11.70;99.90;;;;;;4973508;28;20180;-74
2023/10/03 07:08:16;;;;;;;6.00;2.20;;;11.60;99.90;;;;;;4972379;28;20255;-75
2023/10/03 07:10:42;;;;;;;7.43;1.97;;;11.90;99.90;;;;;;4972106;28;20176;-74
2023/10/03 07:13:08;;;;;;;4.17;2.10;;;11.60;99.90;;;;;;4973614;28;20198;-75
2023/10/03 07:15:34;;;;;;;9.47;2.33;;;11.80;99.90;;;;;;4991387;28;20175;-75
2023/10/03 07:17:59;;;;;;;3.47;2.10;;;11.90;99.90;;;;;;4992618;28;20164;-75
2023/10/03 07:20:25;;;;;;;5.97;2.47;;;11.90;99.90;;;;;;4991639;28;20639;-75
2023/10/03 07:22:50;;;;;;;6.27;2.20;;;12.00;99.90;;;;;;4992683;28;20210;-74
2023/10/03 07:25:16;;;;;;;7.07;1.80;;;12.20;99.90;;;;;;4992246;28;20646;-74
2023/10/03 07:27:42;;;;;;;7.77;2.60;;;12.30;99.90;;;;;;4991434;28;20179;-74
2023/10/03 07:30:09;;;;;;;5.93;1.77;;;12.20;99.90;;;;;;4987886;28;20265;-74
2023/10/03 07:32:35;;;;;;;11.13;2.20;;;12.50;99.90;;;;;;4992687;28;20175;-74
2023/10/03 07:35:02;;;;;;;5.47;2.17;;;12.50;99.90;;;;;;4992398;28;20182;-74
2023/10/03 07:37:28;;;;;;;6.77;1.70;;;12.70;99.90;;;;;;4984137;28;20175;-73
2023/10/03 07:39:54;;;;;;;5.40;1.87;;;12.70;99.90;;;;;;4972717;28;20249;-74
2023/10/03 07:42:23;;;;;;;8.33;2.10;;;12.80;99.90;;;;;;4971248;28;20717;-73
2023/10/03 07:44:52;;;;;;;6.43;1.80;;;12.70;99.90;;;;;;4971394;28;20176;-73
2023/10/03 07:47:20;;;;;;;6.63;2.00;;;12.80;99.90;;;;;;4972754;28;20172;-73
2023/10/03 07:49:48;;;;;;;6.83;1.80;;;13.10;99.90;;;;;;4972637;28;20203;-73
2023/10/03 07:52:17;;;;;;;7.93;1.83;;;13.10;99.90;;;;;;4972603;28;20535;-75
2023/10/03 07:54:49;;;;;;;7.93;1.60;;;13.40;99.90;;;;;;4972715;28;20255;-74
2023/10/03 07:57:15;;;;;;;6.20;1.70;;;13.70;99.90;;;;;;4971424;28;20172;-74
2023/10/03 07:59:43;;;;;;;10.98;1.63;;;13.60;99.90;;;;;;4972498;28;20552;-74
2023/10/03 08:02:10;;;;;;;7.73;1.80;;;13.80;99.90;;;;;;4982851;28;20183;-75
2023/10/03 08:04:41;;;;;;;9.77;1.77;;;14.10;99.90;;;;;;4988467;28;20277;-74
2023/10/03 08:07:07;;;;;;;7.47;1.70;;;;;;;;;;4991367;28;20179;-75
2023/10/03 08:09:34;;;;;;;5.95;1.50;;;14.30;99.90;;;;;;4989089;28;20208;-75
2023/10/03 08:12:00;;;;;;;7.78;1.63;;;;;;;;;;4991290;28;20655;-75
2023/10/03 08:14:33;;;;;;;7.65;1.80;;;14.10;99.90;;;;;;4987251;28;20180;-74
2023/10/03 08:16:59;;;;;;;10.75;1.48;;;;;;;;;;4984375;28;20171;-74
2023/10/03 08:19:25;;;;;;;8.90;1.48;;;15.70;99.90;;;;;;4970574;28;20176;-74
2023/10/03 08:21:55;;;;;;;8.05;1.50;;;16.70;99.90;;;;;;4972110;28;20176;-75
2023/10/03 08:24:32;;;;;;;6.07;1.38;;;15.40;99.90;;;;;;4974812;28;20218;-75
2023/10/03 08:26:59;;;;;;;10.70;1.55;;;15.10;99.90;;;;;;4991330;28;20164;-75
2023/10/03 08:29:26;;;;;;;8.40;1.55;;;15.00;99.90;;;;;;4988413;28;20218;-75
2023/10/03 08:31:59;;;;;;;9.70;1.70;;;14.60;99.90;;;;;;4989439;28;20274;-75
2023/10/03 08:34:29;;;;;;;9.05;1.85;;;14.70;99.90;;;;;;4991250;28;20229;-75
2023/10/03 08:36:58;;;;;;;7.15;1.90;;;14.10;99.90;;;;;;4990841;28;20179;-75
2023/10/03 08:39:34;;;;;;;6.15;1.60;;;14.30;99.90;;;;;;4989358;28;20176;-75
2023/10/03 08:42:12;;;;;;;7.68;1.60;;;14.30;99.90;;;;;;4989532;28;20226;-75
2023/10/03 08:44:52;;;;;;;4.30;1.45;;;14.60;99.90;;;;;;4987169;28;20270;-75
2023/10/03 08:47:28;;;;;;;10.57;1.95;;;14.80;99.90;;;;;;4980816;28;20171;-75
2023/10/03 08:50:01;;;;;;;10.88;2.03;;;15.00;99.90;;;;;;4989247;28;20214;-75
2023/10/03 08:52:39;;;;;;;7.25;1.58;;;14.70;99.90;;;;;;4990395;28;20194;-75
2023/10/03 08:55:08;;;;;;;10.65;1.80;;;15.10;99.90;;;;;;4990287;28;20197;-75
2023/10/03 08:57:35;;;;;;;7.03;1.60;;;15.30;99.90;;;;;;4989822;28;20179;-75
2023/10/03 09:00:04;;;;;;;8.38;1.38;;;15.20;99.90;;;;;;4991179;28;20182;-75
2023/10/03 09:02:44;;;;;;;8.48;1.75;;;15.40;99.90;;;;;;4990970;28;20297;-75
2023/10/03 09:05:20;;;;;;;10.98;1.80;;;15.50;99.90;;;;;;4991103;28;20171;-75
2023/10/03 09:07:50;;;;;;;6.25;1.50;;;15.30;99.90;;;;;;4989834;28;20270;-75
2023/10/03 09:10:23;;;;;;;11.88;1.90;;;15.50;99.90;;;;;;4991095;28;20217;-75
2023/10/03 09:12:56;;;;;;;5.43;1.38;;;15.80;99.90;;;;;;4991237;28;20183;-75
2023/10/03 09:15:22;;;;;;;9.32;1.20;;;15.70;99.90;;;;;;4990962;28;20177;-75
2023/10/03 09:17:50;;;;;;;5.72;1.30;;;15.70;99.90;;;;;;4990999;28;20257;-75
2023/10/03 09:20:22;;;;;;;6.47;1.45;;;15.90;99.90;;;;;;4991093;28;20262;-75
2023/10/03 09:22:48;;;;;;;5.03;0.85;;;16.00;99.90;;;;;;4990960;28;20253;-74
2023/10/03 09:25:16;;;;;;;4.75;1.15;;;16.10;99.90;;;;;;4990974;28;20167;-74
2023/10/03 09:27:42;;;;;;;4.68;1.00;;;16.00;99.90;;;;;;4990879;28;20198;-74
2023/10/03 09:30:10;;;;;;;4.88;1.23;;;15.90;99.90;;;;;;4990881;28;20207;-73
2023/10/03 09:32:39;;;;;;;4.95;0.95;;;16.00;99.90;;;;;;4993920;28;20235;-74
2023/10/03 09:35:09;;;;;;;5.65;1.00;;;16.20;99.90;;;;;;4994662;28;20175;-74
2023/10/03 09:37:36;;;;;;;7.40;1.05;;;16.10;99.90;;;;;;4994684;28;20179;-74
2023/10/03 09:40:16;;;;;;;4.45;1.10;;;16.10;99.90;;;;;;4994299;28;20194;-74
2023/10/03 09:42:48;;;;;;;7.40;1.40;;;16.00;99.90;;;;;;4994161;28;20768;-74
2023/10/03 09:45:18;;;;;;;6.63;1.13;;;16.20;99.90;;;;;;4994374;28;20168;-74
2023/10/03 09:47:45;;;;;;;5.00;1.23;;;16.40;99.90;;;;;;4994378;28;20167;-74
2023/10/03 09:50:13;;;;;;;4.85;1.23;;;16.10;99.90;;;;;;4994336;28;20313;-75
2023/10/03 09:52:44;;;;;;;3.78;1.15;;;16.50;99.90;;;;;;4994259;28;20183;-76
2023/10/03 09:55:26;;;;;;;4.63;0.95;;;;;;;;;;4994245;28;20176;-73
2023/10/03 09:57:54;;;;;;;6.93;1.30;;;16.50;99.90;;;;;;4994078;28;20179;-76
2023/10/03 10:00:40;;;;;;;4.30;1.23;;;16.60;99.90;;;;;;4994125;28;20656;-73
2023/10/03 10:03:12;;;;;;;9.95;1.50;;;16.80;99.90;;;;;;4994128;28;20253;-76
2023/10/03 10:05:46;;;;;;;7.63;1.63;;;16.80;99.90;;;;;;4993903;28;20729;-74
2023/10/03 10:08:20;;;;;;;6.60;1.50;;;16.80;99.90;;;;;;4993634;28;20164;-74
2023/10/03 10:11:07;;;;;;;4.35;1.23;;;17.00;99.90;;;;;;4993973;28;20253;-74
2023/10/03 10:13:41;;;;;;;8.18;1.40;;;16.70;99.90;;;;;;4994071;28;20713;-74
2023/10/03 10:16:20;;;;;;;6.63;1.40;;;16.20;99.90;;;;;;4993755;28;20159;-74
2023/10/03 10:18:45;;;;;;;8.15;1.65;;;16.90;99.90;;;;;;4993937;28;20170;-75
2023/10/03 10:21:24;;;;;;;4.43;1.50;;;17.00;99.90;;;;;;4993822;28;20547;-75
2023/10/03 10:24:09;;;;;;;8.45;1.33;;;17.10;99.90;;;;;;4993597;28;20186;-74
2023/10/03 10:26:35;;;;;;;3.90;1.10;;;17.40;99.90;;;;;;4993648;28;20164;-75
2023/10/03 10:29:08;;;;;;;5.38;1.45;;;17.50;99.90;;;;;;4993918;28;20306;-75
2023/10/03 10:31:44;;;;;;;4.82;1.35;;;17.60;99.90;;;;;;4993549;28;20258;-75
2023/10/03 10:34:22;;;;;;;5.90;1.17;;;17.60;99.90;;;;;;4993835;28;20175;-75
2023/10/03 10:36:56;;;;;;;8.15;1.23;;;18.20;99.90;;;;;;4993557;28;20186;-74
2023/10/03 10:39:25;;;;;;;3.97;1.02;;;18.30;99.90;;;;;;4993256;28;20193;-74
2023/10/03 10:42:10;;;;;;;6.43;1.30;;;18.30;99.90;;;;;;4993129;28;20176;-74
2023/10/03 10:44:35;;;;;;;5.35;1.38;;;18.70;99.90;;;;;;4993357;28;20167;-74
2023/10/03 10:47:07;;;;;;;6.32;1.45;;;18.70;99.90;;;;;;4993326;28;20285;-74
2023/10/03 10:49:36;;;;;;;6.28;1.17;;;18.50;99.90;;;;;;4992027;28;20210;-74
2023/10/03 10:52:06;;;;;;;6.43;1.10;;;18.80;99.90;;;;;;4991848;28;20176;-74
2023/10/03 10:54:33;;;;;;;7.72;1.45;;;18.90;99.90;;;;;;4991748;28;20322;-74
2023/10/03 10:57:03;;;;;;;7.80;1.00;;;19.60;99.90;;;;;;4992983;28;20649;-74
2023/10/03 10:59:39;;;;;;;6.70;1.10;;;20.40;99.90;;;;;;4992941;28;20187;-74
2023/10/03 11:02:15;;;;;;;5.35;1.42;;;19.60;99.90;;;;;;4992859;28;20171;-74
2023/10/03 11:04:40;;;;;;;4.65;1.25;;;20.80;99.90;;;;;;4992870;28;20175;-74
2023/10/03 11:07:06;;;;;;;5.35;1.00;;;21.30;99.90;;;;;;4992810;28;20171;-74
2023/10/03 11:09:36;;;;;;;5.03;1.30;;;21.30;99.90;;;;;;4992999;28;20214;-74
2023/10/03 11:12:06;;;;;;;6.25;1.25;;;22.80;99.90;;;;;;4992821;28;20164;-74
2023/10/03 11:14:33;;;;;;;5.63;1.05;;;24.10;99.90;;;;;;4992579;28;20172;-75
2023/10/03 11:16:59;;;;;;;9.13;1.30;;;24.50;99.90;;;;;;4992822;28;20167;-74
2023/10/03 11:19:30;;;;;;;9.18;1.35;;;22.20;1.00;;;;;;4992466;28;20638;-74
2023/10/03 11:21:55;;;;;;;11.30;1.80;;;20.90;1.00;;;;;;4992713;28;20251;-74
2023/10/03 11:24:23;;;;;;;8.13;1.23;;;19.60;1.00;;;;;;4992642;28;20681;-74
2023/10/03 11:26:54;;;;;;;10.52;1.60;;;18.60;99.90;;;;;;4992564;28;20167;-74
2023/10/03 11:29:45;;;;;;;8.32;1.73;;;18.20;1.00;;;;;;4990911;28;20219;-74
2023/10/03 11:32:18;;;;;;;7.55;1.38;;;19.10;1.00;;;;;;4992526;28;20546;-75
2023/10/03 11:34:48;;;;;;;7.80;1.75;;;21.80;1.00;;;;;;4992479;28;20278;-74
2023/10/03 11:37:34;;;;;;;7.78;1.20;;;23.50;1.00;;;;;;4991915;28;20180;-74
2023/10/03 11:40:17;;;;;;;5.35;1.40;;;25.00;1.00;;;;;;4992182;28;20187;-75
2023/10/03 11:43:04;;;;;;;6.00;1.33;;;24.70;99.90;;;;;;4990735;28;20230;-76
2023/10/03 11:45:32;;;;;;;5.25;1.30;;;25.40;1.00;;;;;;4992561;28;20594;-76
2023/10/03 11:48:19;;;;;;;3.67;1.10;;;25.40;1.00;;;;;;4992079;28;20425;-74
2023/10/03 11:50:45;;;;;;;8.32;1.40;;;25.10;1.00;;;;;;4992156;28;20213;-76
2023/10/03 11:53:12;;;;;;;3.60;1.10;;;25.30;99.90;;;;;;4992094;28;20724;-76
2023/10/03 11:55:40;;;;;;;7.60;1.50;;;25.80;99.90;;;;;;4991869;28;20193;-75
2023/10/03 11:58:07;;;;;;;7.10;1.33;;;25.30;1.00;;;;;;4990749;28;20168;-75
2023/10/03 12:00:35;;;;;;;4.35;1.25;;;25.70;1.00;;;;;;4992050;28;20171;-74
2023/10/03 12:03:04;;;;;;;2.85;1.00;;;25.70;1.00;;;;;;4990923;28;20189;-75
2023/10/03 12:05:29;;;;;;;3.92;1.27;;;26.30;1.00;;;;;;4991966;28;20397;-76
2023/10/03 12:07:56;;;;;;;7.00;1.60;;;26.20;1.00;;;;;;4991864;28;20269;-76
2023/10/03 12:10:26;;;;;;;3.72;1.30;;;26.10;99.90;;;;;;4991640;28;20662;-76
2023/10/03 12:12:52;;;;;;;4.55;1.50;;;25.70;18.70;;;;;;4991829;28;20190;-76
2023/10/03 12:15:20;;;;;;;5.13;1.38;;;25.20;1.00;;;;;;4991918;28;20159;-76
2023/10/03 12:17:47;;;;;;;4.38;1.63;;;25.20;1.00;;;;;;4991863;28;20666;-77
2023/10/03 12:20:16;;;;;;;5.53;1.15;;;25.50;1.00;;;;;;4991871;28;20269;-76
2023/10/03 12:22:44;;;;;;;5.22;1.23;;;25.80;1.00;;;;;;4991837;28;20198;-76
2023/10/03 12:25:11;;;;;;;6.35;1.45;;;25.90;1.00;;;;;;4991825;28;20176;-76
2023/10/03 12:27:38;;;;;;;6.63;1.27;;;26.10;1.00;;;;;;4991589;28;20183;-76
2023/10/03 12:30:08;;;;;;;3.55;1.10;;;26.30;1.00;;;;;;4991494;28;20271;-76
2023/10/03 12:32:35;;;;;;;6.25;1.38;;;25.50;99.90;;;;;;4991545;28;20274;-76
2023/10/03 12:35:01;;;;;;;4.63;1.15;;;25.10;1.00;;;;;;4991615;28;20282;-76
2023/10/03 12:37:28;;;;;;;8.65;1.30;;;24.90;99.90;;;;;;4991614;28;20647;-76
2023/10/03 12:39:54;;;;;;;5.05;1.20;;;24.90;99.90;;;;;;4991558;28;20257;-76
2023/10/03 12:42:20;;;;;;;4.15;1.30;;;24.90;99.90;;;;;;4991392;28;20223;-77
2023/10/03 12:44:46;;;;;;;4.88;1.50;;;25.60;99.90;;;;;;4991582;28;20218;-76
2023/10/03 12:47:11;;;;;;;4.28;1.38;;;25.50;99.90;;;;;;4991402;28;20168;-77
2023/10/03 12:49:37;;;;;;;7.03;1.58;;;25.90;99.90;;;;;;4991322;28;20272;-77
2023/10/03 12:52:03;;;;;;;4.80;1.27;;;25.60;99.90;;;;;;4990219;28;20178;-77
2023/10/03 12:54:28;;;;;;;5.50;1.38;;;25.50;93.40;;;;;;4991442;28;20171;-77
2023/10/03 12:56:54;;;;;;;4.03;1.20;;;25.60;99.90;;;;;;4991398;28;20698;-76
2023/10/03 12:59:20;;;;;;;6.00;1.40;;;26.20;99.90;;;;;;4991279;28;20665;-77
2023/10/03 13:01:46;;;;;;;4.97;1.25;;;24.70;99.90;;;;;;4990151;28;20538;-76
2023/10/03 13:04:11;;;;;;;8.25;1.80;;;24.80;1.00;;;;;;4991376;28;20178;-77